(°C)
22°
21°
20°
20°
19°
18°
18°
(°C)
23°
23°
22°
21°
20°
20°
19°
JJZ
JZ
ZJZ
Z
SZ
ZSZ
ZSZ
(km/h)
8-16
8-16
9-17
9-17
8-20
7-18
7-16
(mm)
0
0
0
0
0
0
0
(%)
7
7
9
3
2
2
2

Sluneční výška

/ -8.7°
sun-icon
UV 5
04:40
20:18
Ubývající měsíc (258°)
23:01
11:56

METAR pro 51.82°S 39.23°V (UUOO)

Čas Podmínky Teplota/
Rosný bod
Vítr Viditelnost Počasí Oblaky Tlak Změna Nezpracované
VFR 22°C / 19°C variable 0kt >10km - Clouds and Visibility OK 1006 No Significant change. Runway 12: Clear and dry, 1-10% contamination with <1mm, friction coefficient 0.70. UUOO 301800Z 00000MPS CAVOK 22/19 Q1006 R12/010070 NOSIG RMK QFE740
22°C / 20°C 190º 2kt >10km - 1006 No Significant change. Runway 12: Clear and dry, 1-10% contamination with <1mm, friction coefficient 0.70. UUOO 301730Z 19001MPS 9999 FEW///CB 22/20 Q1006 R12/010070 NOSIG RMK QFE740
23°C / 19°C 140º variable 100º to 190º 4kt >10km - 1006 No Significant change. Runway 12: Clear and dry, 1-10% contamination with <1mm, friction coefficient 0.70. UUOO 301700Z 14002MPS 100V190 9999 SCT///CB 23/19 Q1006 R12/010070 NOSIG RMK QFE740
24°C / 18°C 160º variable 130º to 230º 4kt >10km in the Vicinity Thunderstorm Vertical Visibility of 0ft. 1006 No Significant change. Runway 12: Clear and dry, 1-10% contamination with <1mm, friction coefficient 0.70. UUOO 301630Z 16002MPS 130V230 9999 VCTS SCT///CB 24/18 Q1006 R12/010070 NOSIG RMK QFE740
25°C / 20°C 140º 8kt >10km in the Vicinity Thunderstorm Vertical Visibility of 0ft. 1006 No Significant change. Runway 12: Clear and dry, 1-10% contamination with <1mm, friction coefficient 0.70. UUOO 301600Z 14004MPS 9999 VCTS SCT///CB 25/20 Q1006 R12/010070 NOSIG RMK QFE740
VFR 24°C / 20°C 110º 6kt >10km - Scattered Clouds 5300ft 1005 No Significant change. Runway 12: Clear and dry, 1-10% contamination with <1mm, friction coefficient 0.70. UUOO 301530Z 11003MPS 9999 SCT053CB 24/20 Q1005 R12/010070 NOSIG RMK QFE740
24°C / 21°C 130º 10kt >10km - 1005 No Significant change. Runway 12: Wet or puddles, 51-100% contamination with 2mm, friction coefficient 0.50. UUOO 301500Z 13005MPS 9999 FEW///CB 24/21 Q1005 R12/290250 NOSIG RMK QFE740
24°C / 22°C 130º 6kt >10km - 1005 No Significant change. Runway 30: Wet or puddles, 51-100% contamination with 2mm, friction coefficient 0.50. UUOO 301430Z 13003MPS 9999 SCT///CB 24/22 Q1005 R30/290250 NOSIG RMK QFE740
24°C / 21°C variable 2kt >10km - 1004 No Significant change. Runway 30: Wet or puddles, 51-100% contamination with 2mm, friction coefficient 0.50. UUOO 301400Z VRB01MPS 9999 SCT///CB 24/21 Q1004 R30/290250 NOSIG RMK QFE740
23°C / 20°C 30º 4kt >10km in the Vicinity Thunderstorm Vertical Visibility of 0ft. 1005 No Significant change. Runway 30: Wet or puddles, 51-100% contamination with 2mm, friction coefficient 0.50. UUOO 301330Z 03002MPS 9999 VCTS SCT///CB 23/20 Q1005 R30/290250 NOSIG RMK QFE740
MVFR 21°C / 19°C variable 2kt 9000m Light Thunderstorm Rain 3.00mm precipitation Vertical Visibility of 0ft. 1004 No Significant change. Runway 30: Wet or puddles, 51-100% contamination with 2mm, friction coefficient 0.50. UUOO 301300Z VRB01MPS 9000 -TSRA BKN020CB 21/19 Q1004 R30/290250 NOSIG RMK QFE740
MVFR 26°C / 19°C 270º 12kt Gust 21kt >10km Light Thunderstorm Rain 3.00mm precipitation Vertical Visibility of 0ft. 1005 Temporary: VRB16MPS Squalls . RMK QFE740 . Runway 12: Clear and dry, 51-100% contamination with <1mm, friction coefficient 0.70. UUOO 301230Z 27006G11MPS 9999 -TSRA BKN013CB 26/19 Q1005 R12/090070 TEMPO VRB16MPS SQ RMK QFE740
31°C / 15°C 250º 12kt >10km in the Vicinity Thunderstorm Vertical Visibility of 0ft. 1004 Temporary: VRB16MPS Light Thunderstorm Rain . Squalls . RMK QFE739 . Runway 12: Clear and dry, 51-100% contamination with <1mm, friction coefficient 0.70. UUOO 301200Z 25006MPS 9999 VCTS BKN///CB 31/15 Q1004 R12/090070 TEMPO VRB16MPS -TSRA SQ RMK QFE739
31°C / 16°C 210º 10kt >10km - 1004 No Significant change. Runway 12: Clear and dry, 51-100% contamination with <1mm, friction coefficient 0.70. UUOO 301130Z 21005MPS 9999 BKN///CB 31/16 Q1004 R12/090070 NOSIG RMK QFE739
32°C / 16°C 230º variable 200º to 270º 12kt >10km - 1005 No Significant change. Runway 12: Clear and dry, 51-100% contamination with <1mm, friction coefficient 0.70. UUOO 301100Z 23006MPS 200V270 9999 BKN///CB 32/16 Q1005 R12/090070 NOSIG RMK QFE740
VFR 31°C / 15°C 230º 10kt >10km - Broken Clouds 5900ft 1005 No Significant change. Runway 12: Clear and dry, 51-100% contamination with <1mm, friction coefficient 0.70. UUOO 301030Z 23005MPS 9999 BKN059CB 31/15 Q1005 R12/090070 NOSIG RMK QFE740
VFR 31°C / 16°C 230º 8kt >10km - Clouds and Visibility OK 1006 No Significant change. Runway 12: Clear and dry, 51-100% contamination with <1mm, friction coefficient 0.70. UUOO 301000Z 23004MPS CAVOK 31/16 Q1006 R12/090070 NOSIG RMK QFE740
VFR 31°C / 16°C 190º variable 130º to 250º 4kt >10km - Clouds and Visibility OK 1006 No Significant change. Runway 12: Clear and dry, 51-100% contamination with <1mm, friction coefficient 0.70. UUOO 300930Z 19002MPS 130V250 CAVOK 31/16 Q1006 R12/090070 NOSIG RMK QFE740
VFR 30°C / 17°C 190º 8kt >10km - Clouds and Visibility OK 1006 No Significant change. Runway 12: Clear and dry, 51-100% contamination with <1mm, friction coefficient 0.70. UUOO 300900Z 19004MPS CAVOK 30/17 Q1006 R12/090070 NOSIG RMK QFE741
VFR 30°C / 16°C 190º 8kt >10km - Clouds and Visibility OK 1006 No Significant change. Runway 12: Clear and dry, 51-100% contamination with <1mm, friction coefficient 0.70. UUOO 300830Z 19004MPS CAVOK 30/16 Q1006 R12/090070 NOSIG RMK QFE741
VFR 28°C / 19°C 190º 8kt >10km - Clouds and Visibility OK 1006 No Significant change. Runway 12: Clear and dry, 51-100% contamination with <1mm, friction coefficient 0.70. UUOO 300730Z 19004MPS CAVOK 28/19 Q1006 R12/090070 NOSIG RMK QFE741
VFR 28°C / 17°C 200º 8kt >10km - Clouds and Visibility OK 1007 No Significant change. Runway 12: Clear and dry, 51-100% contamination with <1mm, friction coefficient 0.70. UUOO 300700Z 20004MPS CAVOK 28/17 Q1007 R12/090070 NOSIG RMK QFE741
VFR 26°C / 18°C 220º 6kt >10km - Clouds and Visibility OK 1007 No Significant change. Runway 12: Clear and dry, 51-100% contamination with <1mm, friction coefficient 0.70. UUOO 300630Z 22003MPS CAVOK 26/18 Q1007 R12/090070 NOSIG RMK QFE741
VFR 26°C / 17°C 230º 8kt >10km - Clouds and Visibility OK 1007 No Significant change. Runway 12: Clear and dry, 51-100% contamination with <1mm, friction coefficient 0.70. UUOO 300600Z 23004MPS CAVOK 26/17 Q1007 R12/090070 NOSIG RMK QFE741

VFR

22°C / 19°C

[Víc]
Vítr variable 0kt
Viditelnost >10km
Počasí -
Oblaky Clouds and Visibility OK
Tlak 1006
Změna No Significant change. Runway 12: Clear and dry, 1-10% contamination with <1mm, friction coefficient 0.70.
Nezpracované UUOO 301800Z 00000MPS CAVOK 22/19 Q1006 R12/010070 NOSIG RMK QFE740

22°C / 20°C

[Víc]
Vítr 190º 2kt
Viditelnost >10km
Počasí -
Oblaky
Tlak 1006
Změna No Significant change. Runway 12: Clear and dry, 1-10% contamination with <1mm, friction coefficient 0.70.
Nezpracované UUOO 301730Z 19001MPS 9999 FEW///CB 22/20 Q1006 R12/010070 NOSIG RMK QFE740

23°C / 19°C

[Víc]
Vítr 140º variable 100º to 190º 4kt
Viditelnost >10km
Počasí -
Oblaky
Tlak 1006
Změna No Significant change. Runway 12: Clear and dry, 1-10% contamination with <1mm, friction coefficient 0.70.
Nezpracované UUOO 301700Z 14002MPS 100V190 9999 SCT///CB 23/19 Q1006 R12/010070 NOSIG RMK QFE740

24°C / 18°C

[Víc]
Vítr 160º variable 130º to 230º 4kt
Viditelnost >10km
Počasí in the Vicinity Thunderstorm
Oblaky Vertical Visibility of 0ft.
Tlak 1006
Změna No Significant change. Runway 12: Clear and dry, 1-10% contamination with <1mm, friction coefficient 0.70.
Nezpracované UUOO 301630Z 16002MPS 130V230 9999 VCTS SCT///CB 24/18 Q1006 R12/010070 NOSIG RMK QFE740

25°C / 20°C

[Víc]
Vítr 140º 8kt
Viditelnost >10km
Počasí in the Vicinity Thunderstorm
Oblaky Vertical Visibility of 0ft.
Tlak 1006
Změna No Significant change. Runway 12: Clear and dry, 1-10% contamination with <1mm, friction coefficient 0.70.
Nezpracované UUOO 301600Z 14004MPS 9999 VCTS SCT///CB 25/20 Q1006 R12/010070 NOSIG RMK QFE740

VFR

24°C / 20°C

[Víc]
Vítr 110º 6kt
Viditelnost >10km
Počasí -
Oblaky Scattered Clouds 5300ft
Tlak 1005
Změna No Significant change. Runway 12: Clear and dry, 1-10% contamination with <1mm, friction coefficient 0.70.
Nezpracované UUOO 301530Z 11003MPS 9999 SCT053CB 24/20 Q1005 R12/010070 NOSIG RMK QFE740

24°C / 21°C

[Víc]
Vítr 130º 10kt
Viditelnost >10km
Počasí -
Oblaky
Tlak 1005
Změna No Significant change. Runway 12: Wet or puddles, 51-100% contamination with 2mm, friction coefficient 0.50.
Nezpracované UUOO 301500Z 13005MPS 9999 FEW///CB 24/21 Q1005 R12/290250 NOSIG RMK QFE740

24°C / 22°C

[Víc]
Vítr 130º 6kt
Viditelnost >10km
Počasí -
Oblaky
Tlak 1005
Změna No Significant change. Runway 30: Wet or puddles, 51-100% contamination with 2mm, friction coefficient 0.50.
Nezpracované UUOO 301430Z 13003MPS 9999 SCT///CB 24/22 Q1005 R30/290250 NOSIG RMK QFE740

24°C / 21°C

[Víc]
Vítr variable 2kt
Viditelnost >10km
Počasí -
Oblaky
Tlak 1004
Změna No Significant change. Runway 30: Wet or puddles, 51-100% contamination with 2mm, friction coefficient 0.50.
Nezpracované UUOO 301400Z VRB01MPS 9999 SCT///CB 24/21 Q1004 R30/290250 NOSIG RMK QFE740

23°C / 20°C

[Víc]
Vítr 30º 4kt
Viditelnost >10km
Počasí in the Vicinity Thunderstorm
Oblaky Vertical Visibility of 0ft.
Tlak 1005
Změna No Significant change. Runway 30: Wet or puddles, 51-100% contamination with 2mm, friction coefficient 0.50.
Nezpracované UUOO 301330Z 03002MPS 9999 VCTS SCT///CB 23/20 Q1005 R30/290250 NOSIG RMK QFE740

MVFR

21°C / 19°C

[Víc]
Vítr variable 2kt
Viditelnost 9000m
Počasí Light Thunderstorm Rain 3.00mm precipitation
Oblaky Vertical Visibility of 0ft.
Tlak 1004
Změna No Significant change. Runway 30: Wet or puddles, 51-100% contamination with 2mm, friction coefficient 0.50.
Nezpracované UUOO 301300Z VRB01MPS 9000 -TSRA BKN020CB 21/19 Q1004 R30/290250 NOSIG RMK QFE740

MVFR

26°C / 19°C

[Víc]
Vítr 270º 12kt Gust 21kt
Viditelnost >10km
Počasí Light Thunderstorm Rain 3.00mm precipitation
Oblaky Vertical Visibility of 0ft.
Tlak 1005
Změna Temporary: VRB16MPS Squalls . RMK QFE740 . Runway 12: Clear and dry, 51-100% contamination with <1mm, friction coefficient 0.70.
Nezpracované UUOO 301230Z 27006G11MPS 9999 -TSRA BKN013CB 26/19 Q1005 R12/090070 TEMPO VRB16MPS SQ RMK QFE740

31°C / 15°C

[Víc]
Vítr 250º 12kt
Viditelnost >10km
Počasí in the Vicinity Thunderstorm
Oblaky Vertical Visibility of 0ft.
Tlak 1004
Změna Temporary: VRB16MPS Light Thunderstorm Rain . Squalls . RMK QFE739 . Runway 12: Clear and dry, 51-100% contamination with <1mm, friction coefficient 0.70.
Nezpracované UUOO 301200Z 25006MPS 9999 VCTS BKN///CB 31/15 Q1004 R12/090070 TEMPO VRB16MPS -TSRA SQ RMK QFE739

31°C / 16°C

[Víc]
Vítr 210º 10kt
Viditelnost >10km
Počasí -
Oblaky
Tlak 1004
Změna No Significant change. Runway 12: Clear and dry, 51-100% contamination with <1mm, friction coefficient 0.70.
Nezpracované UUOO 301130Z 21005MPS 9999 BKN///CB 31/16 Q1004 R12/090070 NOSIG RMK QFE739

32°C / 16°C

[Víc]
Vítr 230º variable 200º to 270º 12kt
Viditelnost >10km
Počasí -
Oblaky
Tlak 1005
Změna No Significant change. Runway 12: Clear and dry, 51-100% contamination with <1mm, friction coefficient 0.70.
Nezpracované UUOO 301100Z 23006MPS 200V270 9999 BKN///CB 32/16 Q1005 R12/090070 NOSIG RMK QFE740

VFR

31°C / 15°C

[Víc]
Vítr 230º 10kt
Viditelnost >10km
Počasí -
Oblaky Broken Clouds 5900ft
Tlak 1005
Změna No Significant change. Runway 12: Clear and dry, 51-100% contamination with <1mm, friction coefficient 0.70.
Nezpracované UUOO 301030Z 23005MPS 9999 BKN059CB 31/15 Q1005 R12/090070 NOSIG RMK QFE740

VFR

31°C / 16°C

[Víc]
Vítr 230º 8kt
Viditelnost >10km
Počasí -
Oblaky Clouds and Visibility OK
Tlak 1006
Změna No Significant change. Runway 12: Clear and dry, 51-100% contamination with <1mm, friction coefficient 0.70.
Nezpracované UUOO 301000Z 23004MPS CAVOK 31/16 Q1006 R12/090070 NOSIG RMK QFE740

VFR

31°C / 16°C

[Víc]
Vítr 190º variable 130º to 250º 4kt
Viditelnost >10km
Počasí -
Oblaky Clouds and Visibility OK
Tlak 1006
Změna No Significant change. Runway 12: Clear and dry, 51-100% contamination with <1mm, friction coefficient 0.70.
Nezpracované UUOO 300930Z 19002MPS 130V250 CAVOK 31/16 Q1006 R12/090070 NOSIG RMK QFE740

VFR

30°C / 17°C

[Víc]
Vítr 190º 8kt
Viditelnost >10km
Počasí -
Oblaky Clouds and Visibility OK
Tlak 1006
Změna No Significant change. Runway 12: Clear and dry, 51-100% contamination with <1mm, friction coefficient 0.70.
Nezpracované UUOO 300900Z 19004MPS CAVOK 30/17 Q1006 R12/090070 NOSIG RMK QFE741

VFR

30°C / 16°C

[Víc]
Vítr 190º 8kt
Viditelnost >10km
Počasí -
Oblaky Clouds and Visibility OK
Tlak 1006
Změna No Significant change. Runway 12: Clear and dry, 51-100% contamination with <1mm, friction coefficient 0.70.
Nezpracované UUOO 300830Z 19004MPS CAVOK 30/16 Q1006 R12/090070 NOSIG RMK QFE741

VFR

28°C / 19°C

[Víc]
Vítr 190º 8kt
Viditelnost >10km
Počasí -
Oblaky Clouds and Visibility OK
Tlak 1006
Změna No Significant change. Runway 12: Clear and dry, 51-100% contamination with <1mm, friction coefficient 0.70.
Nezpracované UUOO 300730Z 19004MPS CAVOK 28/19 Q1006 R12/090070 NOSIG RMK QFE741

VFR

28°C / 17°C

[Víc]
Vítr 200º 8kt
Viditelnost >10km
Počasí -
Oblaky Clouds and Visibility OK
Tlak 1007
Změna No Significant change. Runway 12: Clear and dry, 51-100% contamination with <1mm, friction coefficient 0.70.
Nezpracované UUOO 300700Z 20004MPS CAVOK 28/17 Q1007 R12/090070 NOSIG RMK QFE741

VFR

26°C / 18°C

[Víc]
Vítr 220º 6kt
Viditelnost >10km
Počasí -
Oblaky Clouds and Visibility OK
Tlak 1007
Změna No Significant change. Runway 12: Clear and dry, 51-100% contamination with <1mm, friction coefficient 0.70.
Nezpracované UUOO 300630Z 22003MPS CAVOK 26/18 Q1007 R12/090070 NOSIG RMK QFE741

VFR

26°C / 17°C

[Víc]
Vítr 230º 8kt
Viditelnost >10km
Počasí -
Oblaky Clouds and Visibility OK
Tlak 1007
Změna No Significant change. Runway 12: Clear and dry, 51-100% contamination with <1mm, friction coefficient 0.70.
Nezpracované UUOO 300600Z 23004MPS CAVOK 26/17 Q1007 R12/090070 NOSIG RMK QFE741

TAF pro 51.82°S 39.23°V (UUOO)

From till


From till Wind 270º 6kt. Visibility 10km or more. Scattered Clouds 4000ft.

Nezpracované: TAF UUOO 301700Z 3018/3103 27003MPS 9999 SCT040

Aktuální snímky ze satelitu a srážky pro 51.82°S 39.23°V

Značka polohy je umístěna na 51.82°S 39.23°V. [Víc]

Satelitní snímek v reálném čase kombinuje viditelné světlo během dne s infračerveným zářením během noci. V noci není obraz tmavý, protože infračervené záření dokáže detekovat teplotní rozdíly. Nízká oblačnost a mlha se bohužel těžko odlišují od pozemních teplot, a proto mohou být během noci téměř neviditelné. Satelitní snímky z Meteosatu pro Evropu jsou aktualizovány v reálném čase každých 5 minut. Snímky z GOES-16/GOES-17 (Severní a Jižní Amerika) a Himawari (Asie) jsou aktualizovány) každých 10 minut.

Copyright 2021 EUMETSAT / meteoblue. / Copyright 2021 meteoblue

Radar a krátkodobá předpověď srážek pro 51.82°S 39.23°V

Mrholení
Slabé
Mírná
Silné
Velmi silné
Kroupy

Značka lokality je umístněna na 51.82°S 39.23°V. Tato animace ukazuje srážky zaznamenané radarem za poslední hodinu a také 1h předpověď. Mrholení nebo slabé sněžení mohou být pro radar neviditelné. Intenzita srážek používá barevní kód od světle modré po tmavě fialovou.